Time;durP1;ratioP1;P1;durP2;ratioP2;P2;SDS_P1;SDS_P2;PMS_P1;PMS_P2;Temp;Humidity;BMP_temperature;BMP_pressure;BME280_temperature;BME280_humidity;BME280_pressure;Samples;Min_cycle;Max_cycle;Signal;HPM_P1;HPM_P2
2024/03/20 00:01:36;;;;;;;10.63;7.77;;;9.10;1.00;;;;;;5064655;28;20458;-62
2024/03/20 00:04:04;;;;;;;10.27;6.23;;;9.00;1.00;;;;;;5065603;28;20509;-62
2024/03/20 00:06:33;;;;;;;12.83;7.00;;;9.00;1.00;;;;;;5066893;28;20501;-62
2024/03/20 00:09:02;;;;;;;9.13;7.00;;;9.00;1.00;;;;;;5065960;28;20463;-62
2024/03/20 00:11:29;;;;;;;10.40;7.93;;;9.00;1.00;;;;;;5065522;28;20476;-62
2024/03/20 00:13:57;;;;;;;7.90;6.60;;;9.00;1.00;;;;;;5065850;28;20462;-62
2024/03/20 00:16:24;;;;;;;9.70;6.87;;;9.10;1.00;;;;;;5067525;28;20473;-62
2024/03/20 00:18:52;;;;;;;10.33;6.77;;;9.00;1.00;;;;;;5068417;28;20466;-62
2024/03/20 00:21:19;;;;;;;10.40;6.73;;;9.00;1.00;;;;;;5066189;28;20458;-63
2024/03/20 00:23:47;;;;;;;8.00;7.07;;;9.00;1.00;;;;;;5065475;28;20917;-63
2024/03/20 00:26:17;;;;;;;10.00;7.00;;;9.00;1.00;;;;;;5065613;28;20521;-62
2024/03/20 00:28:45;;;;;;;11.30;8.17;;;8.80;1.00;;;;;;5065810;28;20508;-62
2024/03/20 00:31:13;;;;;;;8.13;6.37;;;8.80;1.00;;;;;;5066604;28;20505;-62
2024/03/20 00:33:40;;;;;;;10.03;6.90;;;8.70;1.00;;;;;;5065378;28;20466;-62
2024/03/20 00:36:07;;;;;;;9.00;6.80;;;8.70;1.00;;;;;;5065245;28;20462;-62
2024/03/20 00:38:35;;;;;;;9.90;7.50;;;8.70;1.00;;;;;;5064753;28;20500;-62
2024/03/20 00:41:03;;;;;;;9.93;7.00;;;8.70;1.00;;;;;;5064954;28;20479;-63
2024/03/20 00:43:32;;;;;;;9.40;6.53;;;8.70;1.00;;;;;;5064550;28;20462;-62
2024/03/20 00:45:59;;;;;;;9.83;6.53;;;8.70;1.00;;;;;;5064976;28;20462;-62
2024/03/20 00:48:26;;;;;;;9.67;6.90;;;8.70;1.00;;;;;;5065332;28;20468;-62
2024/03/20 00:50:54;;;;;;;7.27;6.33;;;8.60;1.00;;;;;;5065574;28;20541;-61
2024/03/20 00:53:21;;;;;;;11.10;6.67;;;8.60;1.00;;;;;;5065767;28;20516;-62
2024/03/20 00:55:49;;;;;;;11.57;6.90;;;8.60;1.00;;;;;;5067541;28;20517;-62
2024/03/20 00:58:16;;;;;;;8.77;6.87;;;8.60;1.00;;;;;;5067905;28;20537;-62
2024/03/20 01:00:46;;;;;;;9.20;6.80;;;8.50;1.00;;;;;;5068726;28;20535;-62
2024/03/20 01:03:13;;;;;;;7.97;7.07;;;8.60;1.00;;;;;;5068036;28;20533;-62
2024/03/20 01:05:41;;;;;;;9.33;6.80;;;8.50;1.00;;;;;;5065807;28;20888;-62
2024/03/20 01:08:08;;;;;;;9.90;7.03;;;8.40;1.00;;;;;;5064986;28;20549;-62
2024/03/20 01:10:36;;;;;;;7.90;7.10;;;8.40;1.00;;;;;;5066257;28;20525;-63
2024/03/20 01:13:03;;;;;;;8.97;7.03;;;8.50;1.00;;;;;;5067187;28;20464;-62
2024/03/20 01:15:31;;;;;;;9.07;7.40;;;8.40;1.00;;;;;;5067222;28;20473;-62
2024/03/20 01:17:59;;;;;;;13.73;7.13;;;8.30;1.00;;;;;;5066922;28;20490;-62
2024/03/20 01:20:26;;;;;;;12.63;7.63;;;8.30;1.00;;;;;;5064287;28;20486;-62
2024/03/20 01:22:54;;;;;;;11.00;6.97;;;8.30;1.00;;;;;;5063551;28;20458;-62
2024/03/20 01:25:22;;;;;;;9.83;6.50;;;8.30;1.00;;;;;;5064303;28;20554;-62
2024/03/20 01:27:49;;;;;;;9.97;6.63;;;8.30;1.00;;;;;;5064831;28;20489;-62
2024/03/20 01:30:16;;;;;;;12.93;7.83;;;8.30;1.00;;;;;;5067159;28;20516;-62
2024/03/20 01:32:44;;;;;;;9.67;7.13;;;8.30;1.00;;;;;;5067517;28;20429;-62
2024/03/20 01:35:13;;;;;;;9.40;7.30;;;8.30;1.00;;;;;;5067660;28;20493;-62
2024/03/20 01:37:40;;;;;;;8.07;6.47;;;8.40;1.00;;;;;;5066742;28;20500;-62
2024/03/20 01:40:09;;;;;;;9.57;6.63;;;8.40;1.00;;;;;;5067140;28;20907;-62
2024/03/20 01:42:36;;;;;;;9.30;6.70;;;8.50;1.00;;;;;;5072906;28;20462;-62
2024/03/20 01:45:13;;;;;;;11.03;6.93;;;8.40;1.00;;;;;;5074405;28;20557;-62
2024/03/20 01:47:42;;;;;;;10.80;7.90;;;8.40;1.00;;;;;;5074880;28;20491;-62
2024/03/20 01:50:11;;;;;;;9.07;7.33;;;8.40;1.00;;;;;;5074781;28;20536;-62
2024/03/20 01:52:51;;;;;;;7.60;6.77;;;8.30;1.00;;;;;;5074703;28;20461;-62
2024/03/20 01:55:21;;;;;;;8.30;6.47;;;8.20;1.00;;;;;;5073983;28;20527;-62
2024/03/20 01:57:48;;;;;;;8.60;7.20;;;8.20;1.00;;;;;;5073235;28;20803;-62
2024/03/20 02:00:21;;;;;;;10.63;7.83;;;8.10;1.00;;;;;;5074434;28;20493;-62
2024/03/20 02:02:49;;;;;;;8.47;6.53;;;8.10;1.00;;;;;;5074582;28;20473;-62
2024/03/20 02:05:16;;;;;;;9.80;6.60;;;8.10;1.00;;;;;;5074287;28;20472;-62
2024/03/20 02:07:45;;;;;;;10.80;7.20;;;8.20;1.00;;;;;;5074576;28;20460;-62
2024/03/20 02:10:13;;;;;;;13.73;7.50;;;8.20;1.00;;;;;;5074148;28;20461;-62
2024/03/20 02:12:40;;;;;;;10.80;7.20;;;8.20;1.00;;;;;;5074531;28;20508;-62
2024/03/20 02:15:09;;;;;;;10.13;6.83;;;8.10;99.90;;;;;;5074398;28;20457;-62
2024/03/20 02:17:37;;;;;;;10.53;7.57;;;8.00;99.90;;;;;;5075065;28;20493;-62
2024/03/20 02:20:06;;;;;;;9.73;6.57;;;7.90;1.00;;;;;;5074618;28;20493;-62
2024/03/20 02:22:40;;;;;;;11.17;6.50;;;7.80;1.00;;;;;;5074205;28;20809;-62
2024/03/20 02:25:07;;;;;;;8.50;6.90;;;7.90;1.00;;;;;;5074540;28;20462;-62
2024/03/20 02:27:35;;;;;;;9.53;7.27;;;7.80;99.90;;;;;;5074293;28;20509;-62
2024/03/20 02:30:02;;;;;;;8.63;6.80;;;7.80;1.00;;;;;;5073555;28;20490;-62
2024/03/20 02:32:30;;;;;;;8.50;7.03;;;7.90;1.00;;;;;;5073891;28;20557;-62
2024/03/20 02:34:57;;;;;;;9.03;8.03;;;7.90;1.00;;;;;;5073432;28;20473;-62
2024/03/20 02:37:24;;;;;;;9.30;7.17;;;7.90;1.00;;;;;;5073206;28;20553;-62
2024/03/20 02:39:53;;;;;;;9.87;7.00;;;8.00;1.00;;;;;;5073528;28;20457;-62
2024/03/20 02:42:21;;;;;;;9.73;7.43;;;8.00;1.00;;;;;;5074117;28;20468;-62
2024/03/20 02:44:48;;;;;;;8.17;6.90;;;8.00;1.00;;;;;;5074078;28;20469;-62
2024/03/20 02:47:15;;;;;;;12.07;8.00;;;8.00;1.00;;;;;;5073897;28;20456;-62
2024/03/20 02:49:43;;;;;;;9.00;7.00;;;8.00;1.00;;;;;;5073867;28;20525;-62
2024/03/20 02:52:10;;;;;;;9.00;6.40;;;8.10;1.00;;;;;;5073790;28;20482;-62
2024/03/20 02:54:37;;;;;;;7.53;6.23;;;8.10;1.00;;;;;;5070841;28;20492;-62
2024/03/20 02:57:06;;;;;;;9.63;7.30;;;8.10;1.00;;;;;;5071358;28;20466;-62
2024/03/20 02:59:33;;;;;;;10.80;7.90;;;8.20;1.00;;;;;;5070492;28;20553;-62
2024/03/20 03:02:00;;;;;;;10.80;7.13;;;8.20;1.00;;;;;;5070051;28;20493;-62
2024/03/20 03:04:27;;;;;;;13.43;7.10;;;8.10;1.00;;;;;;5070319;28;20433;-62
2024/03/20 03:06:55;;;;;;;8.33;6.70;;;8.10;99.90;;;;;;5070847;28;20463;-62
2024/03/20 03:09:22;;;;;;;8.90;6.80;;;8.00;99.90;;;;;;5071358;28;20459;-62
2024/03/20 03:11:50;;;;;;;7.77;6.00;;;7.90;99.90;;;;;;5070461;28;20458;-62
2024/03/20 03:14:18;;;;;;;8.97;7.97;;;7.90;1.00;;;;;;5067267;28;20524;-62
2024/03/20 03:16:46;;;;;;;10.40;7.10;;;7.90;1.00;;;;;;5067043;28;20486;-62
2024/03/20 03:19:13;;;;;;;8.17;7.37;;;7.80;1.00;;;;;;5070432;28;20501;-62
2024/03/20 03:21:41;;;;;;;8.07;6.70;;;7.80;1.00;;;;;;5070681;28;20433;-62
2024/03/20 03:24:08;;;;;;;11.10;7.90;;;7.90;1.00;;;;;;5070457;28;20472;-62
2024/03/20 03:26:37;;;;;;;9.57;7.70;;;7.90;1.00;;;;;;5070390;28;20466;-62
2024/03/20 03:29:04;;;;;;;9.30;7.20;;;7.80;1.00;;;;;;5070454;28;20454;-62
2024/03/20 03:31:36;;;;;;;9.80;7.13;;;7.80;1.00;;;;;;5069567;28;20488;-62
2024/03/20 03:34:03;;;;;;;10.53;7.50;;;7.90;1.00;;;;;;5069679;28;20466;-62
2024/03/20 03:36:32;;;;;;;10.60;7.60;;;7.90;1.00;;;;;;5070362;28;20934;-62
2024/03/20 03:38:59;;;;;;;9.93;7.70;;;7.90;1.00;;;;;;5069994;28;20516;-62
2024/03/20 03:41:26;;;;;;;7.97;7.17;;;8.00;1.00;;;;;;5070290;28;20891;-62
2024/03/20 03:43:54;;;;;;;8.70;7.80;;;8.00;1.00;;;;;;5070375;28;20900;-62
2024/03/20 03:46:21;;;;;;;10.33;7.97;;;8.00;1.00;;;;;;5071057;28;20776;-62
2024/03/20 03:48:50;;;;;;;8.60;7.40;;;8.00;1.00;;;;;;5070656;28;20482;-62
2024/03/20 03:51:17;;;;;;;13.80;6.87;;;8.20;1.00;;;;;;5070533;28;20481;-62
2024/03/20 03:53:44;;;;;;;11.10;6.93;;;8.20;1.00;;;;;;5070116;28;20466;-62
2024/03/20 03:56:11;;;;;;;10.03;7.17;;;8.20;1.00;;;;;;5070249;28;20561;-62
2024/03/20 03:58:38;;;;;;;9.60;7.80;;;8.10;1.00;;;;;;5070405;28;20580;-62
2024/03/20 04:01:07;;;;;;;9.23;7.40;;;8.00;1.00;;;;;;5070888;28;20492;-62
2024/03/20 04:03:34;;;;;;;8.47;6.17;;;8.00;1.00;;;;;;5070606;28;20493;-62
2024/03/20 04:06:03;;;;;;;8.00;6.50;;;8.00;1.00;;;;;;5070670;28;20462;-61
2024/03/20 04:08:30;;;;;;;12.33;6.90;;;7.90;1.00;;;;;;5070291;28;20458;-62
2024/03/20 04:10:58;;;;;;;10.37;7.90;;;7.90;1.00;;;;;;5069690;28;20949;-62
2024/03/20 04:13:25;;;;;;;7.90;6.70;;;7.90;1.00;;;;;;5069591;28;20462;-62
2024/03/20 04:15:53;;;;;;;10.73;6.93;;;7.90;1.00;;;;;;5069767;28;20462;-62
2024/03/20 04:18:21;;;;;;;9.90;7.47;;;7.90;1.00;;;;;;5069241;28;20490;-62
2024/03/20 04:20:48;;;;;;;8.03;7.13;;;7.80;1.00;;;;;;5069607;28;20882;-62
2024/03/20 04:23:17;;;;;;;10.50;8.03;;;7.80;1.00;;;;;;5070220;28;20462;-62
2024/03/20 04:25:44;;;;;;;11.40;8.23;;;7.80;1.00;;;;;;5068469;28;20466;-62
2024/03/20 04:28:11;;;;;;;10.20;7.10;;;7.70;1.00;;;;;;5069353;28;20493;-62
2024/03/20 04:30:39;;;;;;;13.27;8.93;;;7.70;1.00;;;;;;5068065;28;20492;-62
2024/03/20 04:33:07;;;;;;;11.90;8.10;;;7.70;1.00;;;;;;5068658;28;20470;-62
2024/03/20 04:35:34;;;;;;;8.60;7.67;;;7.60;1.00;;;;;;5068501;28;20462;-62
2024/03/20 04:38:02;;;;;;;11.40;8.87;;;7.60;1.00;;;;;;5068914;28;20458;-62
2024/03/20 04:40:31;;;;;;;10.50;9.23;;;7.50;1.00;;;;;;5068601;28;20515;-62
2024/03/20 04:42:58;;;;;;;12.10;8.27;;;7.40;1.00;;;;;;5066844;28;20539;-62
2024/03/20 04:45:26;;;;;;;9.97;8.20;;;7.40;8.90;;;;;;5067219;28;20522;-62
2024/03/20 04:47:53;;;;;;;11.47;9.93;;;7.40;99.90;;;;;;5067781;28;20535;-62
2024/03/20 04:50:21;;;;;;;11.07;8.13;;;7.50;99.90;;;;;;5068729;28;20462;-62
2024/03/20 04:52:48;;;;;;;11.10;8.40;;;7.40;99.90;;;;;;5067966;28;20462;-62
2024/03/20 04:55:15;;;;;;;9.60;8.30;;;7.40;99.90;;;;;;5067730;28;20462;-62
2024/03/20 04:57:44;;;;;;;9.10;8.00;;;7.40;99.90;;;;;;5067943;28;20459;-62
2024/03/20 05:00:15;;;;;;;11.00;8.50;;;7.40;99.90;;;;;;5067504;28;20498;-62
2024/03/20 05:02:42;;;;;;;11.23;8.50;;;7.40;99.90;;;;;;5068349;28;20486;-62
2024/03/20 05:05:10;;;;;;;12.07;8.90;;;7.40;99.90;;;;;;5068070;28;20500;-62
2024/03/20 05:07:38;;;;;;;9.70;8.07;;;7.40;99.90;;;;;;5068290;28;20484;-62
2024/03/20 05:10:05;;;;;;;11.03;8.90;;;7.40;99.90;;;;;;5067984;28;20459;-62
2024/03/20 05:12:33;;;;;;;9.70;8.70;;;7.40;99.90;;;;;;5067448;28;20469;-62
2024/03/20 05:15:02;;;;;;;11.00;8.13;;;7.40;99.90;;;;;;5067665;28;20492;-62
2024/03/20 05:17:30;;;;;;;11.27;8.00;;;7.30;99.90;;;;;;5067682;28;20558;-62
2024/03/20 05:19:57;;;;;;;9.70;7.23;;;7.30;99.90;;;;;;5068215;28;20870;-62
2024/03/20 05:22:24;;;;;;;9.83;8.47;;;7.30;99.90;;;;;;5067774;28;20531;-62
2024/03/20 05:24:51;;;;;;;11.90;10.70;;;7.30;99.90;;;;;;5067607;28;20469;-62
2024/03/20 05:27:17;;;;;;;11.93;10.17;;;7.30;99.90;;;;;;5067324;28;20592;-62
2024/03/20 05:29:45;;;;;;;11.43;8.20;;;7.30;99.90;;;;;;5067642;28;20454;-62
2024/03/20 05:32:14;;;;;;;10.23;9.23;;;7.30;99.90;;;;;;5067989;28;20462;-62
2024/03/20 05:34:40;;;;;;;10.80;9.50;;;7.30;99.90;;;;;;5067798;28;20816;-62
2024/03/20 05:37:08;;;;;;;12.13;9.53;;;7.30;99.90;;;;;;5067861;28;20511;-62
2024/03/20 05:39:37;;;;;;;12.37;10.17;;;7.30;99.90;;;;;;5066964;28;21039;-62
2024/03/20 05:42:07;;;;;;;10.77;8.07;;;7.30;99.90;;;;;;5065476;28;20489;-62
2024/03/20 05:44:41;;;;;;;13.20;9.20;;;7.30;35.10;;;;;;5064316;28;20467;-62
2024/03/20 05:47:08;;;;;;;11.63;8.60;;;7.40;1.00;;;;;;5062913;28;20516;-62
2024/03/20 05:49:36;;;;;;;10.90;9.17;;;7.30;1.00;;;;;;5058200;28;20561;-63
2024/03/20 05:52:05;;;;;;;13.33;9.53;;;7.40;1.00;;;;;;5058426;28;20465;-63
2024/03/20 05:54:31;;;;;;;9.83;8.03;;;7.60;1.00;;;;;;5056733;28;20466;-63
2024/03/20 05:56:59;;;;;;;11.67;9.13;;;7.60;1.00;;;;;;5056691;28;20880;-63
2024/03/20 05:59:25;;;;;;;12.53;9.60;;;7.60;99.90;;;;;;5056131;28;20494;-63
2024/03/20 06:01:52;;;;;;;11.43;9.17;;;7.50;1.00;;;;;;5055987;28;20548;-63
2024/03/20 06:04:18;;;;;;;11.30;9.30;;;7.60;1.00;;;;;;5055713;28;20458;-63
2024/03/20 06:06:48;;;;;;;14.73;10.07;;;7.50;1.00;;;;;;5055699;28;20458;-63
2024/03/20 06:09:14;;;;;;;10.43;9.27;;;7.60;1.00;;;;;;5061507;28;20457;-64
2024/03/20 06:11:42;;;;;;;11.80;9.83;;;7.70;1.00;;;;;;5078021;28;20458;-63
2024/03/20 06:14:10;;;;;;;10.43;9.37;;;7.80;1.00;;;;;;5077416;28;20461;-63
2024/03/20 06:16:37;;;;;;;12.63;9.07;;;7.90;1.00;;;;;;5077486;28;20461;-63
2024/03/20 06:19:04;;;;;;;11.30;8.17;;;8.00;1.00;;;;;;5076490;28;20485;-62
2024/03/20 06:21:31;;;;;;;12.07;9.40;;;8.00;99.90;;;;;;5077048;28;20458;-63
2024/03/20 06:23:59;;;;;;;10.10;8.27;;;8.10;1.00;;;;;;5077850;28;20790;-63
2024/03/20 06:26:27;;;;;;;9.40;8.20;;;8.20;99.90;;;;;;5076790;28;20457;-63
2024/03/20 06:28:53;;;;;;;10.00;8.57;;;8.30;1.00;;;;;;5078106;28;20534;-61
2024/03/20 06:31:21;;;;;;;13.03;8.50;;;8.30;42.70;;;;;;5081087;28;20465;-64
2024/03/20 06:33:48;;;;;;;8.60;7.70;;;8.40;99.90;;;;;;5080842;28;20492;-63
2024/03/20 06:36:16;;;;;;;10.37;8.33;;;8.60;1.00;;;;;;5079451;28;20889;-63
2024/03/20 06:38:42;;;;;;;10.13;8.60;;;8.70;1.00;;;;;;5079029;28;20490;-63
2024/03/20 06:41:13;;;;;;;11.27;9.20;;;8.80;1.00;;;;;;5079132;28;20457;-63
2024/03/20 06:43:39;;;;;;;10.70;9.17;;;8.80;99.90;;;;;;5074631;28;20449;-64
2024/03/20 06:46:06;;;;;;;10.50;8.60;;;8.80;99.90;;;;;;5077120;28;20449;-63
2024/03/20 06:48:32;;;;;;;10.90;9.33;;;8.80;99.90;;;;;;5077261;28;20518;-64
2024/03/20 06:51:00;;;;;;;10.00;9.00;;;8.90;99.90;;;;;;5076862;28;20449;-64
2024/03/20 06:53:26;;;;;;;11.57;9.60;;;8.90;1.00;;;;;;5077364;28;20936;-63
2024/03/20 06:55:55;;;;;;;11.67;9.13;;;9.00;1.00;;;;;;5076230;28;20499;-64
2024/03/20 06:58:23;;;;;;;35.43;11.30;;;9.00;99.90;;;;;;5076743;28;20457;-63
2024/03/20 07:00:51;;;;;;;32.37;13.37;;;9.20;58.30;;;;;;5077247;28;20796;-64
2024/03/20 07:03:18;;;;;;;39.37;11.80;;;9.30;99.90;;;;;;5092504;28;20812;-63
2024/03/20 07:05:46;;;;;;;22.20;10.33;;;9.40;1.00;;;;;;5075714;28;20462;-63
2024/03/20 07:08:12;;;;;;;22.83;11.33;;;9.60;1.00;;;;;;5078282;28;20453;-64
2024/03/20 07:10:40;;;;;;;20.57;10.63;;;9.70;1.00;;;;;;5077434;28;20515;-64
2024/03/20 07:13:08;;;;;;;15.80;11.20;;;9.90;15.40;;;;;;5076804;28;20489;-64
2024/03/20 07:15:37;;;;;;;12.00;9.27;;;10.00;1.00;;;;;;5078534;28;20873;-63
2024/03/20 07:18:04;;;;;;;12.40;10.10;;;10.10;99.90;;;;;;5079311;28;20469;-64
2024/03/20 07:20:31;;;;;;;12.23;9.37;;;10.40;99.90;;;;;;5079690;28;20488;-64
2024/03/20 07:22:57;;;;;;;11.13;9.60;;;10.60;99.90;;;;;;5079378;28;20464;-64
2024/03/20 07:25:26;;;;;;;10.20;8.73;;;10.80;99.90;;;;;;5079314;28;20457;-64
2024/03/20 07:27:53;;;;;;;11.70;8.97;;;10.90;1.00;;;;;;5078197;28;20508;-64
2024/03/20 07:30:22;;;;;;;11.83;9.37;;;10.90;99.90;;;;;;5077391;28;20491;-64
2024/03/20 07:32:49;;;;;;;15.17;10.23;;;11.20;99.90;;;;;;5077782;28;20461;-64
2024/03/20 07:35:21;;;;;;;10.43;9.00;;;11.30;99.90;;;;;;5078964;28;20461;-64
2024/03/20 07:37:47;;;;;;;14.50;10.07;;;11.30;99.90;;;;;;5078148;28;20443;-64
2024/03/20 07:40:15;;;;;;;12.13;10.07;;;11.60;1.00;;;;;;5077193;28;20493;-64
2024/03/20 07:42:42;;;;;;;13.73;9.57;;;11.80;99.90;;;;;;5077305;28;20576;-64
2024/03/20 07:45:10;;;;;;;11.50;8.70;;;11.90;99.90;;;;;;5077512;28;20461;-64
2024/03/20 07:47:36;;;;;;;13.40;8.50;;;12.00;40.90;;;;;;5077376;28;20802;-64
2024/03/20 07:50:09;;;;;;;10.70;8.70;;;12.30;99.50;;;;;;5077368;28;20449;-64
2024/03/20 07:52:35;;;;;;;9.40;8.50;;;12.40;53.10;;;;;;5077178;28;20958;-64
2024/03/20 07:55:03;;;;;;;10.40;9.30;;;12.60;1.00;;;;;;5077831;28;20461;-64
2024/03/20 07:57:29;;;;;;;10.67;8.07;;;12.70;99.90;;;;;;5079109;28;20484;-64
2024/03/20 07:59:57;;;;;;;9.73;8.73;;;12.90;1.00;;;;;;5078674;28;20485;-64
2024/03/20 08:02:23;;;;;;;10.33;8.67;;;13.10;1.00;;;;;;5078111;28;20438;-64
2024/03/20 08:04:51;;;;;;;9.33;7.80;;;13.30;75.80;;;;;;5078745;28;20457;-65
2024/03/20 08:07:18;;;;;;;8.77;7.70;;;13.50;99.90;;;;;;5078624;28;20453;-64
2024/03/20 08:09:46;;;;;;;8.33;7.50;;;13.70;99.90;;;;;;5078982;28;20564;-65
2024/03/20 08:12:13;;;;;;;9.90;7.80;;;13.80;1.00;;;;;;5078430;28;20512;-65
2024/03/20 08:14:40;;;;;;;8.97;8.07;;;14.00;1.00;;;;;;5078410;28;20457;-65
2024/03/20 08:17:07;;;;;;;9.20;7.77;;;14.20;1.00;;;;;;5078447;28;20461;-64
2024/03/20 08:19:35;;;;;;;9.33;8.30;;;14.30;1.00;;;;;;5078527;28;20486;-65
2024/03/20 08:22:02;;;;;;;8.00;7.20;;;14.40;1.00;;;;;;5078208;28;20507;-65
2024/03/20 08:24:31;;;;;;;9.87;7.40;;;14.60;1.00;;;;;;5077290;28;20463;-64
2024/03/20 08:26:58;;;;;;;10.27;8.27;;;14.70;1.00;;;;;;5077464;28;20856;-65
2024/03/20 08:29:28;;;;;;;9.90;8.40;;;14.90;1.00;;;;;;5078371;28;20489;-65
2024/03/20 08:31:55;;;;;;;9.70;8.70;;;15.20;99.90;;;;;;5077755;28;20516;-65
2024/03/20 08:34:22;;;;;;;11.20;8.00;;;15.40;99.90;;;;;;5077489;28;20532;-65
2024/03/20 08:36:49;;;;;;;10.90;8.10;;;15.50;99.90;;;;;;5077477;28;20471;-64
2024/03/20 08:39:16;;;;;;;8.73;7.83;;;15.50;1.00;;;;;;5076929;28;20930;-65
2024/03/20 08:41:44;;;;;;;8.80;7.60;;;15.70;1.00;;;;;;5076948;28;20461;-65
2024/03/20 08:44:13;;;;;;;8.70;7.77;;;15.80;1.00;;;;;;5077289;28;20887;-65
2024/03/20 08:46:41;;;;;;;8.13;7.37;;;15.90;1.00;;;;;;5077029;28;20496;-65
2024/03/20 08:49:09;;;;;;;14.60;8.27;;;15.90;1.00;;;;;;5077588;28;20454;-65
2024/03/20 08:51:35;;;;;;;10.17;7.50;;;16.20;1.00;;;;;;5076999;28;20461;-65
2024/03/20 08:54:03;;;;;;;9.73;7.87;;;16.30;1.00;;;;;;5077758;28;20820;-65
2024/03/20 08:56:29;;;;;;;10.13;8.00;;;16.40;1.00;;;;;;5077465;28;20757;-65
2024/03/20 08:58:58;;;;;;;8.57;6.57;;;16.60;1.00;;;;;;5074930;28;20457;-65
2024/03/20 09:01:25;;;;;;;8.10;7.30;;;16.70;1.00;;;;;;5074134;28;20914;-64
2024/03/20 09:03:52;;;;;;;7.80;7.00;;;16.80;1.00;;;;;;5075949;28;20803;-65
2024/03/20 09:06:18;;;;;;;8.30;7.00;;;17.10;1.00;;;;;;5074544;28;20458;-65
2024/03/20 09:08:46;;;;;;;10.27;8.00;;;17.30;1.00;;;;;;5074633;28;20786;-64
2024/03/20 09:11:12;;;;;;;9.90;7.23;;;17.60;1.00;;;;;;5074642;28;20544;-65
2024/03/20 09:13:39;;;;;;;11.90;7.50;;;17.40;1.00;;;;;;5075691;28;20455;-64
2024/03/20 09:16:08;;;;;;;8.27;7.13;;;17.40;1.00;;;;;;5075986;28;20457;-64
2024/03/20 09:18:35;;;;;;;6.90;6.30;;;17.60;1.00;;;;;;5074858;28;20782;-64
2024/03/20 09:21:02;;;;;;;8.60;6.73;;;17.80;1.00;;;;;;5075004;28;20778;-65
2024/03/20 09:23:29;;;;;;;10.23;7.40;;;17.80;1.00;;;;;;5075740;28;20535;-64
2024/03/20 09:25:55;;;;;;;6.60;5.43;;;17.70;1.00;;;;;;5076171;28;20460;-64
2024/03/20 09:28:23;;;;;;;8.70;6.83;;;17.90;1.00;;;;;;5075453;28;20489;-65
2024/03/20 09:30:49;;;;;;;7.33;6.07;;;18.10;1.00;;;;;;5075802;28;20726;-65
2024/03/20 09:33:18;;;;;;;8.80;6.37;;;18.20;1.00;;;;;;5076204;28;20457;-65
2024/03/20 09:35:45;;;;;;;6.53;5.20;;;18.10;50.60;;;;;;5076622;28;20753;-65
2024/03/20 09:38:12;;;;;;;8.77;5.80;;;18.40;1.00;;;;;;5077299;28;20952;-65
2024/03/20 09:40:39;;;;;;;7.17;5.23;;;18.70;1.00;;;;;;5076032;28;20563;-65
2024/03/20 09:43:06;;;;;;;6.13;5.60;;;18.70;99.90;;;;;;5076421;28;20464;-64
2024/03/20 09:45:34;;;;;;;6.97;5.43;;;19.10;1.00;;;;;;5076220;28;20465;-65
2024/03/20 09:48:02;;;;;;;7.40;5.70;;;19.20;99.90;;;;;;5077150;28;20905;-65
2024/03/20 09:50:30;;;;;;;5.60;5.07;;;19.60;1.00;;;;;;5076813;28;20910;-65
2024/03/20 09:52:57;;;;;;;8.60;6.30;;;19.30;99.90;;;;;;5076348;28;21087;-64
2024/03/20 09:55:24;;;;;;;7.03;5.10;;;19.40;99.90;;;;;;5075176;28;20462;-65
2024/03/20 09:57:51;;;;;;;6.63;5.67;;;19.40;99.90;;;;;;5075663;28;20465;-64
2024/03/20 10:00:19;;;;;;;10.73;6.67;;;19.90;99.90;;;;;;5075255;28;20554;-64
2024/03/20 10:02:48;;;;;;;6.53;5.07;;;19.50;99.90;;;;;;5076817;28;20492;-64
2024/03/20 10:05:15;;;;;;;5.03;4.53;;;19.90;99.90;;;;;;5079218;28;20493;-64
2024/03/20 10:07:45;;;;;;;5.00;4.40;;;20.00;99.90;;;;;;5077052;28;20555;-65
2024/03/20 10:10:13;;;;;;;5.17;4.67;;;19.90;99.90;;;;;;5080769;28;20453;-65
2024/03/20 10:12:41;;;;;;;8.70;4.50;;;20.20;99.90;;;;;;5080629;28;20457;-65
2024/03/20 10:15:08;;;;;;;4.73;4.03;;;20.00;99.90;;;;;;5080563;28;20457;-64
2024/03/20 10:17:36;;;;;;;8.07;4.73;;;20.50;99.90;;;;;;5081083;28;20555;-65
2024/03/20 10:20:14;;;;;;;6.37;4.37;;;20.70;99.90;;;;;;5080567;28;20957;-65
2024/03/20 10:22:43;;;;;;;6.33;4.60;;;20.40;99.90;;;;;;5080113;28;20552;-65
2024/03/20 10:25:13;;;;;;;5.73;3.90;;;20.40;99.90;;;;;;5079728;28;20894;-64
2024/03/20 10:27:42;;;;;;;5.40;3.87;;;20.70;99.90;;;;;;5079806;28;20492;-65
2024/03/20 10:30:14;;;;;;;4.80;4.30;;;20.60;99.90;;;;;;5080861;28;20556;-65
2024/03/20 10:32:46;;;;;;;4.80;4.30;;;20.80;99.90;;;;;;5080281;28;20461;-65
2024/03/20 10:35:14;;;;;;;4.33;3.80;;;20.80;99.90;;;;;;5080194;28;20572;-65
2024/03/20 10:37:45;;;;;;;4.70;3.30;;;20.50;99.90;;;;;;5080581;28;20461;-65
2024/03/20 10:40:16;;;;;;;5.30;3.53;;;20.70;99.90;;;;;;5080657;28;20827;-64
2024/03/20 10:42:45;;;;;;;4.60;3.60;;;21.30;99.90;;;;;;5080277;28;20895;-64
2024/03/20 10:45:12;;;;;;;4.70;4.30;;;21.20;99.90;;;;;;5080565;28;20522;-64
2024/03/20 10:47:40;;;;;;;5.57;4.57;;;20.50;99.90;;;;;;5080453;28;20959;-64
2024/03/20 10:50:15;;;;;;;5.00;4.07;;;20.40;99.90;;;;;;5080306;28;20454;-64
2024/03/20 10:52:45;;;;;;;5.03;3.43;;;20.30;99.90;;;;;;5079763;28;20460;-63
2024/03/20 10:55:16;;;;;;;4.87;4.37;;;20.60;99.90;;;;;;5079221;28;20461;-63
2024/03/20 10:57:44;;;;;;;4.20;3.80;;;20.40;99.90;;;;;;5076545;28;20472;-65
2024/03/20 11:00:16;;;;;;;5.50;4.83;;;20.70;99.90;;;;;;5079105;28;20493;-64
2024/03/20 11:02:44;;;;;;;7.83;4.60;;;21.10;1.00;;;;;;5077837;28;20465;-64
2024/03/20 11:05:36;;;;;;;4.20;3.80;;;21.30;99.90;;;;;;5076655;28;20512;-64
2024/03/20 11:08:07;;;;;;;6.90;4.67;;;21.00;99.90;;;;;;5058781;28;20458;-64
2024/03/20 11:10:34;;;;;;;3.97;3.57;;;20.80;99.90;;;;;;5070514;28;20483;-65
2024/03/20 11:13:02;;;;;;;6.03;4.63;;;20.70;99.90;;;;;;5079649;28;20457;-65
2024/03/20 11:15:31;;;;;;;6.70;4.40;;;20.10;1.00;;;;;;5076379;28;20505;-65
2024/03/20 11:18:00;;;;;;;5.77;5.13;;;20.00;99.90;;;;;;5076499;28;20472;-64
2024/03/20 11:20:43;;;;;;;5.23;4.73;;;19.60;99.90;;;;;;5078744;28;20489;-63
2024/03/20 11:23:23;;;;;;;5.70;4.20;;;19.60;1.00;;;;;;5076780;28;20591;-64
2024/03/20 11:25:50;;;;;;;8.03;4.83;;;19.60;99.90;;;;;;5076230;28;20465;-64
2024/03/20 11:28:19;;;;;;;7.40;4.73;;;19.50;99.90;;;;;;5076909;28;20513;-64
2024/03/20 11:30:47;;;;;;;5.10;4.60;;;19.60;99.90;;;;;;5076187;28;20491;-64
2024/03/20 11:33:16;;;;;;;5.23;4.73;;;19.40;99.90;;;;;;5078128;28;20461;-64
2024/03/20 11:35:46;;;;;;;7.10;4.77;;;19.50;99.90;;;;;;5076920;28;20480;-64
2024/03/20 11:38:19;;;;;;;6.90;4.60;;;19.40;99.90;;;;;;5074028;28;20511;-64
2024/03/20 11:40:45;;;;;;;5.43;4.93;;;19.50;99.90;;;;;;5077920;28;20817;-64
2024/03/20 11:43:13;;;;;;;5.23;4.80;;;19.40;99.90;;;;;;5079307;28;20469;-64
2024/03/20 11:45:39;;;;;;;5.43;4.53;;;19.40;99.90;;;;;;5079146;28;20454;-64
2024/03/20 11:48:10;;;;;;;4.80;4.40;;;19.40;99.90;;;;;;5078740;28;20453;-64
2024/03/20 11:50:36;;;;;;;6.20;4.40;;;19.60;99.90;;;;;;5078769;28;20741;-65
2024/03/20 11:53:06;;;;;;;7.20;5.30;;;19.90;99.90;;;;;;5078352;28;20555;-63
2024/03/20 11:55:35;;;;;;;6.43;4.70;;;20.20;99.90;;;;;;5078923;28;20497;-65
2024/03/20 11:58:04;;;;;;;4.97;4.47;;;20.30;99.90;;;;;;5075672;28;20443;-65
2024/03/20 12:00:32;;;;;;;5.80;4.50;;;20.70;99.90;;;;;;5078442;28;20523;-64
2024/03/20 12:03:00;;;;;;;6.20;3.90;;;20.60;1.00;;;;;;5078670;28;20460;-64
2024/03/20 12:05:27;;;;;;;4.67;3.37;;;20.70;1.00;;;;;;5077002;28;20485;-64
2024/03/20 12:07:57;;;;;;;4.50;3.83;;;20.60;1.00;;;;;;5078885;28;20462;-64
2024/03/20 12:10:36;;;;;;;5.00;3.10;;;20.50;1.00;;;;;;5077940;28;20548;-65
2024/03/20 12:13:07;;;;;;;6.10;4.30;;;20.60;1.00;;;;;;5077682;28;20801;-64
2024/03/20 12:15:34;;;;;;;4.67;4.27;;;21.20;1.00;;;;;;5078583;28;20458;-64
2024/03/20 12:18:03;;;;;;;5.43;4.20;;;21.10;64.90;;;;;;5078135;28;20519;-63
2024/03/20 12:20:29;;;;;;;4.70;4.20;;;21.20;39.00;;;;;;5077730;28;20550;-64
2024/03/20 12:22:57;;;;;;;4.83;4.43;;;20.90;35.10;;;;;;5078012;28;20484;-64
2024/03/20 12:25:25;;;;;;;5.07;3.90;;;20.90;61.30;;;;;;5078227;28;20467;-65
2024/03/20 12:27:55;;;;;;;4.90;4.40;;;20.30;10.40;;;;;;5077752;28;20797;-65
2024/03/20 12:30:21;;;;;;;4.10;3.73;;;20.20;12.10;;;;;;5077062;28;20500;-64
2024/03/20 12:32:48;;;;;;;6.70;3.70;;;19.70;1.00;;;;;;5077726;28;20453;-65
2024/03/20 12:35:15;;;;;;;5.07;3.53;;;20.00;1.00;;;;;;5078179;28;20457;-64
2024/03/20 12:37:43;;;;;;;4.80;3.70;;;20.10;13.60;;;;;;5078274;28;20719;-64
2024/03/20 12:40:12;;;;;;;6.77;3.97;;;20.10;39.90;;;;;;5076967;28;20489;-64
2024/03/20 12:42:40;;;;;;;5.57;3.77;;;20.40;57.90;;;;;;5076158;28;20461;-64
2024/03/20 12:45:10;;;;;;;5.63;4.00;;;20.00;8.70;;;;;;5076312;28;20461;-63
2024/03/20 12:47:38;;;;;;;4.80;3.40;;;20.20;24.70;;;;;;5076456;28;20894;-63
2024/03/20 12:50:10;;;;;;;3.83;3.43;;;20.30;77.00;;;;;;5074528;28;20523;-64
2024/03/20 12:52:39;;;;;;;7.03;3.70;;;20.60;90.40;;;;;;5076447;28;20465;-64
2024/03/20 12:55:08;;;;;;;4.83;4.03;;;20.20;49.70;;;;;;5077123;28;20591;-64
2024/03/20 12:57:36;;;;;;;4.10;3.70;;;20.00;73.80;;;;;;5077742;28;20511;-64